createdAt,value
2023-04-02T00:00:35.933Z,55.29
2023-04-02T00:03:10.270Z,55.39
2023-04-02T00:05:37.186Z,55.48
2023-04-02T00:08:19.217Z,55.43
2023-04-02T00:10:56.859Z,55.64
2023-04-02T00:13:39.017Z,55.89
2023-04-02T00:16:09.249Z,55.75
2023-04-02T00:18:42.693Z,55.68
2023-04-02T00:21:24.522Z,55.94
2023-04-02T00:23:55.687Z,56.18
2023-04-02T00:26:30.890Z,56.40
2023-04-02T00:29:00.771Z,56.34
2023-04-02T00:31:28.198Z,56.57
2023-04-02T00:33:56.170Z,56.61
2023-04-02T00:36:26.723Z,57.05
2023-04-02T00:38:58.358Z,57.35
2023-04-02T00:41:29.903Z,57.44
2023-04-02T00:43:58.919Z,57.59
2023-04-02T00:46:32.442Z,57.77
2023-04-02T00:49:22.760Z,57.90
2023-04-02T00:52:03.162Z,58.01
2023-04-02T00:54:37.064Z,57.94
2023-04-02T00:57:04.057Z,58.32
2023-04-02T00:59:32.567Z,58.40
2023-04-02T01:02:22.442Z,58.42
2023-04-02T01:05:15.580Z,58.53
2023-04-02T01:07:57.235Z,58.58
2023-04-02T01:10:42.946Z,58.53
2023-04-02T01:13:35.178Z,58.69
2023-04-02T01:16:29.554Z,58.72
2023-04-02T01:19:08.784Z,58.70
2023-04-02T01:21:55.506Z,58.92
2023-04-02T01:24:27.139Z,59.02
2023-04-02T01:27:08.216Z,58.74
2023-04-02T01:29:39.330Z,59.31
2023-04-02T01:32:10.888Z,59.24
2023-04-02T01:34:39.113Z,59.70
2023-04-02T01:37:08.505Z,59.80
2023-04-02T01:39:50.489Z,59.83
2023-04-02T01:42:27.103Z,59.99
2023-04-02T01:45:01.499Z,59.72
2023-04-02T01:47:29.057Z,60.26
2023-04-02T01:50:19.258Z,60.38
2023-04-02T01:52:52.443Z,60.52
2023-04-02T01:55:30.092Z,60.70
2023-04-02T01:57:58.885Z,60.99
2023-04-02T02:00:28.016Z,61.15
2023-04-02T02:02:55.438Z,61.23
2023-04-02T02:05:23.761Z,61.29
2023-04-02T02:07:52.837Z,61.36
2023-04-02T02:10:34.826Z,61.73
2023-04-02T02:13:01.768Z,61.93
2023-04-02T02:15:29.099Z,61.80
2023-04-02T02:18:03.887Z,61.78
2023-04-02T02:20:32.638Z,61.67
2023-04-02T02:23:01.443Z,61.77
2023-04-02T02:25:32.533Z,61.71
2023-04-02T02:28:16.087Z,61.56
2023-04-02T02:31:19.450Z,61.45
2023-04-02T02:33:51.228Z,60.91
2023-04-02T02:36:23.338Z,60.61
2023-04-02T02:39:13.973Z,60.54
2023-04-02T02:42:06.126Z,60.37
2023-04-02T02:44:36.939Z,60.45
2023-04-02T02:47:22.765Z,60.31
2023-04-02T02:49:54.294Z,60.36
2023-04-02T02:52:28.281Z,60.24
2023-04-02T02:55:02.209Z,60.30
2023-04-02T02:57:41.562Z,60.44
2023-04-02T03:00:11.848Z,60.74
2023-04-02T03:02:41.572Z,60.72
2023-04-02T03:05:15.988Z,60.93
2023-04-02T03:07:43.830Z,61.03
2023-04-02T03:10:19.516Z,61.38
2023-04-02T03:13:06.014Z,61.53
2023-04-02T03:15:59.003Z,61.82
2023-04-02T03:18:26.319Z,62.05
2023-04-02T03:20:58.261Z,61.84
2023-04-02T03:23:34.969Z,62.68
2023-04-02T03:26:08.371Z,62.72
2023-04-02T03:28:41.356Z,63.11
2023-04-02T03:31:18.117Z,62.99
2023-04-02T03:33:54.740Z,63.30
2023-04-02T03:36:33.883Z,63.43
2023-04-02T03:39:41.531Z,63.26
2023-04-02T03:42:27.130Z,63.57
2023-04-02T03:45:05.313Z,63.68
2023-04-02T03:47:40.062Z,63.62
2023-04-02T03:50:13.505Z,63.95
2023-04-02T03:52:40.697Z,63.77
2023-04-02T03:55:19.623Z,64.10
2023-04-02T03:58:00.283Z,64.09
2023-04-02T04:00:38.470Z,64.56
2023-04-02T04:03:13.364Z,64.89
2023-04-02T04:05:55.794Z,64.95
2023-04-02T04:08:30.627Z,65.38
2023-04-02T04:11:01.952Z,65.65
2023-04-02T04:13:36.897Z,65.54
2023-04-02T04:16:10.217Z,65.83
2023-04-02T04:18:53.225Z,66.05
2023-04-02T04:21:31.241Z,66.15
2023-04-02T04:24:08.048Z,66.44
2023-04-02T04:26:53.754Z,66.42
2023-04-02T04:29:45.741Z,66.19
2023-04-02T04:32:32.524Z,63.35
2023-04-02T04:35:31.474Z,62.31
2023-04-02T04:38:05.083Z,60.90
2023-04-02T04:40:42.434Z,59.81
2023-04-02T04:43:17.548Z,59.15
2023-04-02T04:45:55.841Z,58.88
2023-04-02T04:48:29.843Z,58.38
2023-04-02T04:51:01.691Z,58.19
2023-04-02T04:53:30.602Z,58.49
2023-04-02T04:56:18.108Z,59.97
2023-04-02T04:58:58.329Z,61.09
2023-04-02T05:01:34.230Z,62.27
2023-04-02T05:04:09.325Z,62.98
2023-04-02T05:06:43.567Z,63.27
2023-04-02T05:09:38.225Z,64.04
2023-04-02T05:12:31.258Z,64.22
2023-04-02T05:15:09.612Z,64.81
2023-04-02T05:17:48.804Z,64.55
2023-04-02T05:20:40.452Z,64.61
2023-04-02T05:23:19.651Z,64.89
2023-04-02T05:26:09.448Z,65.04
2023-04-02T05:29:14.782Z,65.28
2023-04-02T05:32:07.934Z,65.63
2023-04-02T05:34:39.480Z,65.76
2023-04-02T05:37:13.472Z,65.59
2023-04-02T05:39:44.923Z,65.93
2023-04-02T05:42:22.477Z,65.73
2023-04-02T05:45:06.795Z,65.93
2023-04-02T05:47:34.476Z,66.01
2023-04-02T05:50:05.928Z,66.51
2023-04-02T05:52:36.336Z,66.01
2023-04-02T05:55:41.002Z,66.31
2023-04-02T06:01:04.057Z,66.12
2023-04-02T06:03:45.040Z,65.79
2023-04-02T06:06:44.021Z,65.88
2023-04-02T06:09:42.992Z,66.00
2023-04-02T06:12:33.136Z,66.37
2023-04-02T06:15:00.942Z,66.90
2023-04-02T06:17:30.382Z,66.94
2023-04-02T06:19:59.446Z,67.16
2023-04-02T06:22:36.478Z,67.14
2023-04-02T06:25:29.872Z,67.20
2023-04-02T06:27:59.804Z,67.62
2023-04-02T06:30:33.145Z,67.86
2023-04-02T06:33:00.905Z,67.69
2023-04-02T06:35:29.356Z,67.66
2023-04-02T06:38:03.090Z,67.58
2023-04-02T06:40:38.688Z,67.64
2023-04-02T06:43:53.205Z,67.69
2023-04-02T06:46:52.559Z,67.97
2023-04-02T06:49:36.466Z,68.22
2023-04-02T06:52:13.360Z,68.21
2023-04-02T06:54:40.350Z,68.17
2023-04-02T06:57:10.924Z,67.72
2023-04-02T06:59:41.109Z,66.91
2023-04-02T07:02:33.850Z,66.86
2023-04-02T07:05:06.605Z,66.81
2023-04-02T07:07:35.536Z,66.62
2023-04-02T07:10:05.007Z,66.46
2023-04-02T07:12:31.669Z,66.36
2023-04-02T07:14:58.400Z,65.89
2023-04-02T07:17:25.118Z,65.94
2023-04-02T07:19:51.808Z,65.58
2023-04-02T07:22:22.227Z,65.84
2023-04-02T07:24:55.549Z,65.92
2023-04-02T07:27:22.246Z,65.48
2023-04-02T07:29:48.829Z,64.91
2023-04-02T07:32:15.732Z,64.56
2023-04-02T07:34:42.386Z,64.47
2023-04-02T07:37:13.986Z,64.17
2023-04-02T07:39:40.823Z,63.92
2023-04-02T07:42:08.165Z,63.74
2023-04-02T07:44:34.888Z,63.53
2023-04-02T07:47:01.963Z,63.74
2023-04-02T07:49:28.828Z,63.81
2023-04-02T07:51:55.455Z,63.95
2023-04-02T07:54:22.114Z,63.80
2023-04-02T07:56:48.876Z,63.42
2023-04-02T07:59:15.900Z,63.10
2023-04-02T08:01:43.341Z,62.67
2023-04-02T08:04:19.490Z,62.62
2023-04-02T08:06:47.503Z,62.40
2023-04-02T08:09:15.872Z,62.19
2023-04-02T08:11:43.044Z,62.27
2023-04-02T08:14:10.406Z,62.07
2023-04-02T08:17:04.029Z,61.56
2023-04-02T08:19:31.846Z,61.57
2023-04-02T08:21:58.669Z,61.60
2023-04-02T08:24:25.606Z,61.82
2023-04-02T08:26:54.419Z,61.89
2023-04-02T08:29:21.782Z,62.34
2023-04-02T08:31:48.487Z,62.76
2023-04-02T08:34:15.456Z,63.11
2023-04-02T08:36:45.207Z,64.21
2023-04-02T08:39:12.789Z,64.32
2023-04-02T08:42:04.170Z,65.14
2023-04-02T08:44:44.811Z,66.02
2023-04-02T08:47:14.275Z,66.22
2023-04-02T08:49:50.160Z,66.70
2023-04-02T08:52:36.771Z,66.92
2023-04-02T08:55:13.374Z,66.46
2023-04-02T08:58:18.525Z,66.44
2023-04-02T09:00:47.180Z,66.95
2023-04-02T09:03:21.492Z,67.05
2023-04-02T09:05:51.229Z,67.05
2023-04-02T09:08:26.338Z,67.47
2023-04-02T09:11:19.099Z,68.03
2023-04-02T09:13:48.818Z,68.56
2023-04-02T09:16:22.645Z,68.29
2023-04-02T09:18:52.789Z,68.22
2023-04-02T09:21:42.414Z,67.98
2023-04-02T09:24:13.345Z,67.91
2023-04-02T09:26:40.445Z,67.92
2023-04-02T09:29:13.439Z,68.03
2023-04-02T09:32:19.339Z,68.92
2023-04-02T09:34:46.252Z,68.94
2023-04-02T09:37:18.940Z,69.00
2023-04-02T09:39:46.137Z,69.09
2023-04-02T09:42:32.106Z,68.93
2023-04-02T09:45:20.929Z,68.98
2023-04-02T09:47:48.419Z,68.88
2023-04-02T09:50:21.069Z,69.15
2023-04-02T09:52:48.944Z,68.90
2023-04-02T09:55:15.596Z,68.99
2023-04-02T09:57:43.330Z,69.22
2023-04-02T10:00:39.569Z,68.96
2023-04-02T10:03:17.943Z,68.81
2023-04-02T10:05:46.782Z,68.55
2023-04-02T10:08:28.239Z,68.63
2023-04-02T10:11:01.249Z,68.57
2023-04-02T10:13:35.120Z,68.13
2023-04-02T10:16:09.551Z,67.91
2023-04-02T10:18:54.635Z,67.33
2023-04-02T10:21:32.380Z,67.21
2023-04-02T10:23:59.779Z,67.08
2023-04-02T10:26:41.672Z,66.49
2023-04-02T10:29:23.133Z,65.73
2023-04-02T10:32:13.707Z,65.35
2023-04-02T10:34:56.434Z,64.42
2023-04-02T10:37:48.976Z,63.69
2023-04-02T10:40:45.263Z,62.91
2023-04-02T10:43:27.182Z,61.11
2023-04-02T10:46:15.683Z,60.79
2023-04-02T10:49:00.902Z,59.43
2023-04-02T10:51:54.246Z,59.54
2023-04-02T10:54:48.486Z,59.42
2023-04-02T10:57:29.079Z,58.38
2023-04-02T11:00:11.390Z,55.94
2023-04-02T11:02:53.362Z,56.27
2023-04-02T11:05:28.116Z,55.52
2023-04-02T11:08:15.680Z,55.21
2023-04-02T11:10:53.001Z,54.77
2023-04-02T11:13:46.665Z,54.55
2023-04-02T11:16:17.186Z,54.11
2023-04-02T11:19:09.745Z,53.55
2023-04-02T11:21:51.079Z,52.23
2023-04-02T11:24:31.760Z,52.11
2023-04-02T11:27:20.889Z,52.38
2023-04-02T11:29:58.463Z,51.87
2023-04-02T11:32:33.749Z,51.76
2023-04-02T11:35:26.970Z,52.47
2023-04-02T11:38:23.911Z,51.33
2023-04-02T11:40:59.895Z,49.90
2023-04-02T11:43:32.514Z,47.28
2023-04-02T11:46:00.378Z,48.37
2023-04-02T11:48:29.853Z,49.22
2023-04-02T11:50:57.581Z,49.15
2023-04-02T11:53:34.586Z,49.97
2023-04-02T11:56:40.469Z,50.57
2023-04-02T11:59:21.367Z,51.15
2023-04-02T12:02:05.786Z,53.07
2023-04-02T12:05:04.548Z,53.68
2023-04-02T12:08:19.163Z,53.62
2023-04-02T12:10:57.815Z,53.63
2023-04-02T12:13:39.927Z,53.81
2023-04-02T12:16:08.826Z,53.74
2023-04-02T12:18:36.519Z,53.85
2023-04-02T12:21:03.331Z,53.92
2023-04-02T12:23:33.411Z,53.77
2023-04-02T12:26:03.597Z,53.33
2023-04-02T12:28:34.153Z,53.19
2023-04-02T12:31:10.134Z,52.22
2023-04-02T12:33:39.142Z,52.50
2023-04-02T12:36:14.168Z,52.38
2023-04-02T12:38:48.391Z,51.88
2023-04-02T12:41:36.534Z,51.45
2023-04-02T12:44:15.583Z,51.23
2023-04-02T12:46:43.490Z,51.07
2023-04-02T12:49:34.212Z,50.48
2023-04-02T12:52:09.065Z,49.77
2023-04-02T12:54:45.109Z,49.81
2023-04-02T12:57:30.289Z,49.56
2023-04-02T13:00:00.177Z,49.52
2023-04-02T13:02:32.807Z,49.28
2023-04-02T13:05:01.555Z,49.06
2023-04-02T13:10:26.538Z,49.46
2023-04-02T13:13:01.141Z,49.15
2023-04-02T13:15:31.685Z,48.67
2023-04-02T13:18:13.690Z,48.38
2023-04-02T13:20:42.345Z,47.96
2023-04-02T13:23:47.489Z,47.64
2023-04-02T13:26:29.453Z,46.55
2023-04-02T13:29:04.275Z,47.39
2023-04-02T13:31:33.996Z,46.77
2023-04-02T13:34:01.502Z,47.09
2023-04-02T13:36:29.565Z,46.52
2023-04-02T13:38:58.111Z,45.81
2023-04-02T13:41:27.983Z,45.70
2023-04-02T13:43:56.715Z,46.96
2023-04-02T13:46:26.663Z,45.24
2023-04-02T13:48:55.091Z,46.37
2023-04-02T13:51:27.993Z,45.33
2023-04-02T13:53:57.616Z,47.03
2023-04-02T13:56:24.986Z,47.17
2023-04-02T13:58:52.354Z,46.21
2023-04-02T14:01:21.771Z,46.27
2023-04-02T14:03:49.109Z,45.44
2023-04-02T14:06:32.871Z,45.36
2023-04-02T14:09:09.946Z,45.95
2023-04-02T14:12:22.169Z,45.52
2023-04-02T14:15:11.811Z,44.93
2023-04-02T14:17:57.556Z,44.76
2023-04-02T14:20:33.293Z,44.59
2023-04-02T14:23:13.721Z,43.45
2023-04-02T14:25:55.881Z,43.13
2023-04-02T14:28:39.553Z,43.39
2023-04-02T14:31:09.152Z,42.45
2023-04-02T14:33:54.526Z,43.22
2023-04-02T14:36:27.355Z,42.84
2023-04-02T14:39:21.618Z,43.83
2023-04-02T14:42:13.970Z,44.13
2023-04-02T14:44:57.768Z,43.66
2023-04-02T14:47:31.341Z,43.59
2023-04-02T14:50:11.033Z,42.96
2023-04-02T14:52:43.200Z,42.55
2023-04-02T14:55:33.060Z,42.47
2023-04-02T14:58:04.771Z,41.91
2023-04-02T15:00:34.546Z,42.13
2023-04-02T15:03:22.232Z,42.09
2023-04-02T15:05:56.199Z,42.53
2023-04-02T15:08:27.902Z,42.45
2023-04-02T15:11:20.043Z,42.66
2023-04-02T15:13:58.394Z,42.55
2023-04-02T15:16:29.072Z,42.66
2023-04-02T15:18:57.428Z,42.22
2023-04-02T15:21:49.660Z,43.10
2023-04-02T15:24:54.331Z,43.96
2023-04-02T15:27:48.496Z,43.72
2023-04-02T15:30:27.783Z,44.74
2023-04-02T15:32:59.198Z,44.31
2023-04-02T15:35:44.984Z,43.76
2023-04-02T15:38:16.008Z,43.98
2023-04-02T15:41:01.847Z,43.92
2023-04-02T15:43:43.461Z,43.54
2023-04-02T15:46:31.495Z,43.83
2023-04-02T15:49:20.418Z,44.02
2023-04-02T15:52:06.884Z,44.16
2023-04-02T15:55:10.606Z,44.77
2023-04-02T15:57:53.287Z,44.56
2023-04-02T16:00:33.566Z,44.22
2023-04-02T16:03:27.916Z,43.90
2023-04-02T16:06:01.105Z,44.20
2023-04-02T16:08:34.009Z,44.32
2023-04-02T16:11:01.092Z,44.39
2023-04-02T16:13:35.854Z,44.29
2023-04-02T16:16:12.353Z,44.23
2023-04-02T16:18:55.746Z,44.65
2023-04-02T16:21:27.606Z,44.31
2023-04-02T16:23:54.366Z,44.47
2023-04-02T16:26:32.046Z,44.47
2023-04-02T16:29:20.527Z,44.64
2023-04-02T16:31:58.573Z,45.21
2023-04-02T16:34:28.856Z,45.11
2023-04-02T16:37:06.479Z,44.93
2023-04-02T16:39:58.180Z,44.53
2023-04-02T16:42:49.036Z,44.88
2023-04-02T16:45:29.188Z,45.73
2023-04-02T16:48:20.501Z,45.62
2023-04-02T16:50:50.197Z,45.89
2023-04-02T16:53:34.414Z,45.69
2023-04-02T16:56:22.874Z,45.80
2023-04-02T16:58:58.006Z,45.97
2023-04-02T17:02:12.890Z,45.80
2023-04-02T17:04:56.284Z,45.70
2023-04-02T17:07:31.657Z,45.67
2023-04-02T17:10:27.079Z,45.96
2023-04-02T17:13:31.766Z,46.61
2023-04-02T17:16:21.900Z,46.40
2023-04-02T17:18:52.410Z,46.78
2023-04-02T17:21:25.299Z,46.70
2023-04-02T17:24:00.564Z,47.05
2023-04-02T17:26:30.633Z,47.16
2023-04-02T17:29:01.319Z,47.07
2023-04-02T17:31:34.274Z,47.62
2023-04-02T17:34:13.775Z,48.19
2023-04-02T17:36:58.790Z,48.55
2023-04-02T17:39:36.795Z,49.05
2023-04-02T17:42:15.957Z,49.21
2023-04-02T17:44:49.009Z,49.58
2023-04-02T17:47:39.528Z,49.69
2023-04-02T17:50:12.102Z,50.57
2023-04-02T17:53:19.197Z,50.85
2023-04-02T17:56:24.287Z,50.65
2023-04-02T17:59:00.377Z,50.74
2023-04-02T18:01:34.768Z,50.87
2023-04-02T18:04:28.151Z,51.11
2023-04-02T18:07:27.093Z,51.26
2023-04-02T18:10:05.180Z,51.39
2023-04-02T18:12:52.257Z,51.39
2023-04-02T18:15:56.898Z,51.81
2023-04-02T18:18:34.911Z,51.79
2023-04-02T18:21:36.060Z,51.59
2023-04-02T18:24:46.384Z,51.96
2023-04-02T18:27:41.258Z,52.25
2023-04-02T18:30:47.731Z,52.27
2023-04-02T18:33:33.140Z,52.38
2023-04-02T18:36:07.801Z,52.49
2023-04-02T18:38:44.785Z,52.63
2023-04-02T18:41:28.293Z,52.90
2023-04-02T18:44:04.173Z,52.91
2023-04-02T18:46:43.650Z,52.64
2023-04-02T18:49:19.891Z,52.54
2023-04-02T18:51:52.512Z,52.74
2023-04-02T18:54:43.302Z,52.92
2023-04-02T18:57:23.986Z,52.95
2023-04-02T19:00:16.940Z,53.09
2023-04-02T19:03:19.417Z,52.84
2023-04-02T19:05:54.056Z,53.31
2023-04-02T19:08:28.330Z,53.10
2023-04-02T19:11:01.876Z,53.13
2023-04-02T19:13:39.914Z,53.31
2023-04-02T19:19:51.159Z,53.50
2023-04-02T19:22:43.656Z,53.38
2023-04-02T19:25:26.625Z,53.55
2023-04-02T19:28:07.375Z,53.59
2023-04-02T19:31:00.260Z,53.93
2023-04-02T19:33:29.543Z,54.13
2023-04-02T19:36:10.155Z,54.26
2023-04-02T19:39:01.471Z,53.71
2023-04-02T19:41:34.582Z,53.44
2023-04-02T19:44:05.474Z,53.40
2023-04-02T19:46:32.837Z,53.56
2023-04-02T19:49:23.084Z,54.00
2023-04-02T19:51:50.996Z,54.02
2023-04-02T19:54:20.953Z,54.07
2023-04-02T19:56:53.203Z,54.45
2023-04-02T19:59:27.425Z,54.34
2023-04-02T20:01:58.999Z,54.62
2023-04-02T20:04:25.872Z,55.41
2023-04-02T20:06:53.652Z,56.15
2023-04-02T20:09:23.918Z,56.81
2023-04-02T20:12:14.994Z,57.19
2023-04-02T20:14:42.141Z,57.24
2023-04-02T20:17:12.185Z,57.74
2023-04-02T20:19:42.991Z,57.85
2023-04-02T20:22:26.539Z,58.95
2023-04-02T20:24:54.955Z,59.44
2023-04-02T20:30:08.652Z,58.31
2023-04-02T20:32:41.494Z,57.64
2023-04-02T20:35:11.271Z,57.32
2023-04-02T20:37:39.654Z,57.72
2023-04-02T20:40:14.006Z,57.97
2023-04-02T20:42:45.474Z,58.77
2023-04-02T20:45:17.442Z,58.58
2023-04-02T20:47:44.620Z,58.84
2023-04-02T20:50:13.726Z,59.31
2023-04-02T20:52:44.789Z,58.68
2023-04-02T20:55:11.879Z,58.36
2023-04-02T20:57:38.995Z,57.29
2023-04-02T21:00:08.243Z,57.71
2023-04-02T21:02:35.001Z,57.60
2023-04-02T21:05:01.684Z,57.46
2023-04-02T21:07:28.353Z,57.41
2023-04-02T21:09:54.960Z,57.84
2023-04-02T21:12:21.689Z,58.19
2023-04-02T21:14:49.340Z,58.05
2023-04-02T21:17:16.504Z,57.95
2023-04-02T21:19:43.188Z,57.32
2023-04-02T21:22:09.808Z,57.00
2023-04-02T21:24:36.412Z,56.77
2023-04-02T21:27:03.064Z,56.68
2023-04-02T21:29:29.698Z,55.99
2023-04-02T21:31:56.725Z,55.99
2023-04-02T21:34:23.825Z,55.44
2023-04-02T21:36:50.632Z,55.73
2023-04-02T21:39:21.200Z,55.55
2023-04-02T21:41:53.153Z,55.65
2023-04-02T21:44:22.204Z,55.66
2023-04-02T21:46:51.824Z,55.36
2023-04-02T21:49:26.229Z,55.59
2023-04-02T21:51:52.935Z,56.26
2023-04-02T21:54:20.018Z,56.11
2023-04-02T21:56:47.728Z,55.84
2023-04-02T21:59:16.032Z,55.64
2023-04-02T22:01:45.456Z,55.63
2023-04-02T22:04:17.633Z,55.61
2023-04-02T22:06:44.882Z,55.37
2023-04-02T22:09:14.949Z,55.26
2023-04-02T22:11:45.514Z,55.06
2023-04-02T22:16:58.808Z,55.16
2023-04-02T22:19:26.661Z,55.14
2023-04-02T22:21:53.308Z,55.45
2023-04-02T22:24:22.182Z,56.09
2023-04-02T22:26:49.111Z,55.91
2023-04-02T22:29:16.499Z,56.24
2023-04-02T22:31:43.237Z,56.28
2023-04-02T22:34:10.406Z,56.48
2023-04-02T22:36:37.130Z,56.94
2023-04-02T22:39:07.034Z,57.28
2023-04-02T22:41:33.756Z,57.32
2023-04-02T22:44:01.769Z,56.77
2023-04-02T22:46:30.185Z,56.91
2023-04-02T22:48:57.667Z,57.38
2023-04-02T22:54:11.959Z,56.46
2023-04-02T22:56:38.629Z,56.32
2023-04-02T22:59:05.845Z,56.35
2023-04-02T23:01:36.069Z,56.42
2023-04-02T23:04:05.030Z,56.34
2023-04-02T23:06:32.097Z,56.09
2023-04-02T23:08:58.754Z,55.78
2023-04-02T23:11:27.865Z,55.85
2023-04-02T23:13:57.683Z,55.78
2023-04-02T23:16:27.242Z,55.27
2023-04-02T23:18:55.559Z,55.04
2023-04-02T23:21:23.406Z,55.22
2023-04-02T23:23:51.569Z,55.10
2023-04-02T23:26:29.438Z,55.14
2023-04-02T23:28:57.689Z,55.84
2023-04-02T23:31:24.890Z,56.18
2023-04-02T23:33:52.653Z,56.19
2023-04-02T23:36:32.091Z,56.17
2023-04-02T23:39:02.427Z,56.00
2023-04-02T23:41:30.518Z,56.39
2023-04-02T23:43:58.302Z,56.22
2023-04-02T23:46:25.927Z,55.97
2023-04-02T23:48:53.337Z,55.86
2023-04-02T23:51:20.121Z,55.68
2023-04-02T23:53:47.732Z,55.37
2023-04-02T23:56:14.412Z,55.62
2023-04-02T23:58:41.021Z,56.22
